Time;durP1;ratioP1;P1;durP2;ratioP2;P2;SDS_P1;SDS_P2;PMS_P1;PMS_P2;Temp;Humidity;BMP_temperature;BMP_pressure;BME280_temperature;BME280_humidity;BME280_pressure;Samples;Min_cycle;Max_cycle;Signal;HPM_P1;HPM_P2
2021/10/02 00:36:51;;;;;;;2.27;2.07;;;16.00;99.90;;;;;;4998209;28;20457;-85
2021/10/02 00:45:00;;;;;;;1.57;1.43;;;16.10;99.90;;;;;;5039534;28;20466;-88
2021/10/02 00:47:29;;;;;;;3.43;1.40;;;16.00;99.90;;;;;;5044350;28;20468;-85
2021/10/02 00:49:57;;;;;;;2.90;1.53;;;16.00;99.90;;;;;;5038816;28;20472;-86
2021/10/02 00:52:25;;;;;;;2.30;2.20;;;16.00;99.90;;;;;;5043376;28;20460;-86
2021/10/02 00:54:53;;;;;;;1.80;1.70;;;16.00;99.90;;;;;;5044266;28;20460;-88
2021/10/02 00:57:22;;;;;;;1.50;1.40;;;16.00;99.90;;;;;;5040597;28;20482;-85
2021/10/02 00:59:50;;;;;;;1.53;1.43;;;16.00;99.90;;;;;;5021098;28;20504;-86
2021/10/02 01:02:23;;;;;;;3.33;1.60;;;16.00;99.90;;;;;;5042290;28;20566;-86
2021/10/02 01:05:09;;;;;;;2.20;1.77;;;16.00;99.90;;;;;;5040361;28;20461;-87
2021/10/02 01:07:42;;;;;;;1.77;1.67;;;16.00;99.90;;;;;;5043396;28;20466;-86
2021/10/02 01:10:21;;;;;;;1.57;1.47;;;16.00;99.90;;;;;;5032294;28;20880;-86
2021/10/02 01:13:01;;;;;;;2.37;1.70;;;16.00;99.90;;;;;;5038441;28;20486;-86
2021/10/02 01:15:52;;;;;;;2.23;1.70;;;16.00;99.90;;;;;;5042851;28;20454;-85
2021/10/02 01:18:29;;;;;;;1.83;1.40;;;16.00;99.90;;;;;;5036026;28;20460;-89
2021/10/02 01:21:11;;;;;;;1.43;1.30;;;16.00;99.90;;;;;;5041264;28;20552;-86
2021/10/02 01:23:58;;;;;;;1.47;1.37;;;15.90;99.90;;;;;;5033550;28;20482;-87
2021/10/02 01:26:49;;;;;;;2.53;1.50;;;15.90;99.90;;;;;;5035983;28;20452;-85
2021/10/02 01:29:20;;;;;;;1.70;1.60;;;15.90;99.90;;;;;;5033209;28;20455;-85
2021/10/02 01:31:57;;;;;;;1.40;1.30;;;15.90;99.90;;;;;;5044553;28;20460;-86
2021/10/02 01:34:29;;;;;;;1.97;1.30;;;15.90;99.90;;;;;;5040926;28;20463;-88
2021/10/02 01:37:07;;;;;;;1.53;1.43;;;15.90;99.90;;;;;;5039730;28;20513;-85
2021/10/02 01:47:55;;;;;;;1.67;1.37;;;15.90;99.90;;;;;;5040455;28;20456;-86
2021/10/02 01:50:24;;;;;;;1.50;1.40;;;15.90;99.90;;;;;;5042581;28;20471;-86
2021/10/02 01:52:53;;;;;;;1.57;1.47;;;15.90;99.90;;;;;;5037660;28;20554;-86
2021/10/02 01:55:23;;;;;;;2.30;1.40;;;15.90;99.90;;;;;;5040849;28;20976;-86
2021/10/02 01:57:55;;;;;;;1.80;1.70;;;15.90;99.90;;;;;;5037046;28;20471;-86
2021/10/02 02:00:24;;;;;;;2.47;1.70;;;15.90;99.90;;;;;;5040801;28;20534;-88
2021/10/02 02:02:56;;;;;;;1.67;1.57;;;15.90;99.90;;;;;;5044618;28;20456;-86
2021/10/02 02:05:26;;;;;;;2.27;1.50;;;15.90;99.90;;;;;;5042953;28;20850;-89
2021/10/02 02:07:59;;;;;;;1.73;1.40;;;15.90;99.90;;;;;;5032863;28;20452;-85
2021/10/02 02:10:27;;;;;;;1.63;1.53;;;15.80;99.90;;;;;;5016181;28;20498;-86
2021/10/02 02:12:57;;;;;;;1.50;1.40;;;15.80;99.90;;;;;;5041823;28;21351;-86
2021/10/02 02:15:30;;;;;;;1.73;1.47;;;15.80;99.90;;;;;;5043049;28;20463;-85
2021/10/02 02:18:02;;;;;;;2.57;1.60;;;15.80;99.90;;;;;;5046749;28;20467;-86
2021/10/02 02:20:32;;;;;;;2.00;1.90;;;15.80;99.90;;;;;;5037693;28;20475;-90
2021/10/02 02:23:01;;;;;;;1.47;1.37;;;15.80;99.90;;;;;;5031552;28;20520;-85
2021/10/02 02:25:29;;;;;;;1.80;1.70;;;15.80;99.90;;;;;;5041930;28;20533;-88
2021/10/02 02:27:57;;;;;;;1.83;1.73;;;15.80;99.90;;;;;;5041807;28;20484;-85
2021/10/02 02:30:27;;;;;;;1.60;1.43;;;15.70;99.90;;;;;;5041232;28;20467;-89
2021/10/02 02:32:55;;;;;;;2.20;1.50;;;15.70;99.90;;;;;;5046766;28;21135;-86
2021/10/02 02:35:23;;;;;;;1.60;1.50;;;15.70;99.90;;;;;;5041921;28;20837;-86
2021/10/02 02:37:51;;;;;;;1.63;1.53;;;15.70;99.90;;;;;;5045576;28;20529;-85
2021/10/02 02:40:18;;;;;;;1.90;1.67;;;15.70;99.90;;;;;;5033996;28;20448;-85
2021/10/02 02:42:46;;;;;;;2.17;1.70;;;15.70;99.90;;;;;;5042142;28;20494;-86
2021/10/02 02:45:15;;;;;;;1.90;1.80;;;15.70;99.90;;;;;;5050494;28;20452;-86
2021/10/02 02:47:48;;;;;;;1.87;1.70;;;15.70;99.90;;;;;;5043278;28;20463;-86
2021/10/02 02:50:21;;;;;;;1.60;1.50;;;15.70;99.90;;;;;;5041259;28;20505;-86
2021/10/02 02:52:55;;;;;;;1.83;1.50;;;15.70;99.90;;;;;;5044720;28;20463;-89
2021/10/02 02:55:27;;;;;;;1.63;1.53;;;15.70;99.90;;;;;;5041720;28;20451;-86
2021/10/02 02:57:57;;;;;;;1.60;1.50;;;15.70;99.90;;;;;;5047181;28;20819;-88
2021/10/02 03:00:25;;;;;;;1.90;1.80;;;15.60;99.90;;;;;;5041766;28;20499;-85
2021/10/02 03:02:57;;;;;;;3.33;1.73;;;15.60;99.90;;;;;;5042203;28;20472;-84
2021/10/02 03:05:27;;;;;;;1.77;1.60;;;15.60;99.90;;;;;;5047833;28;20533;-86
2021/10/02 03:07:58;;;;;;;1.47;1.37;;;15.60;99.90;;;;;;5042812;28;20457;-85
2021/10/02 03:10:26;;;;;;;1.67;1.57;;;15.60;99.90;;;;;;5049404;28;20550;-84
2021/10/02 03:12:57;;;;;;;3.07;1.57;;;15.60;99.90;;;;;;5038451;28;20475;-86
2021/10/02 03:15:26;;;;;;;1.60;1.50;;;15.60;99.90;;;;;;5037307;28;20471;-87
2021/10/02 03:17:56;;;;;;;2.80;1.60;;;15.60;99.90;;;;;;5040178;28;20467;-86
2021/10/02 03:20:24;;;;;;;1.90;1.80;;;15.60;99.90;;;;;;5045902;28;20935;-87
2021/10/02 03:22:55;;;;;;;2.13;1.77;;;15.60;99.90;;;;;;5048517;28;21217;-86
2021/10/02 03:25:26;;;;;;;1.90;1.80;;;15.60;99.90;;;;;;5043171;28;20509;-85
2021/10/02 03:27:55;;;;;;;2.50;1.60;;;15.60;99.90;;;;;;5043619;28;20455;-85
2021/10/02 03:30:22;;;;;;;1.80;1.70;;;15.60;99.90;;;;;;5036870;28;20472;-86
2021/10/02 03:32:52;;;;;;;2.43;2.23;;;15.60;99.90;;;;;;5041125;28;20491;-86
2021/10/02 03:35:20;;;;;;;4.53;1.97;;;15.60;99.90;;;;;;5046242;28;20963;-85
2021/10/02 03:37:49;;;;;;;2.03;1.83;;;15.60;99.90;;;;;;5039560;28;20542;-85
2021/10/02 03:40:16;;;;;;;1.97;1.70;;;15.60;99.90;;;;;;5039418;28;20967;-88
2021/10/02 03:42:46;;;;;;;6.80;1.90;;;15.60;99.90;;;;;;5044784;28;20483;-88
2021/10/02 03:45:14;;;;;;;3.30;1.83;;;15.60;99.90;;;;;;5046384;28;20477;-86
2021/10/02 03:47:42;;;;;;;1.83;1.73;;;15.50;99.90;;;;;;5037418;28;20860;-85
2021/10/02 03:50:10;;;;;;;1.50;1.40;;;15.50;99.90;;;;;;5040540;28;20455;-88
2021/10/02 03:52:40;;;;;;;2.20;1.83;;;15.50;99.90;;;;;;5040246;28;20463;-86
2021/10/02 03:55:09;;;;;;;1.97;1.80;;;15.50;99.90;;;;;;5043364;28;20459;-85
2021/10/02 03:57:36;;;;;;;2.60;1.90;;;15.50;99.90;;;;;;5032731;28;20898;-86
2021/10/02 04:00:05;;;;;;;2.23;1.57;;;15.50;99.90;;;;;;5036285;28;20507;-85
2021/10/02 04:02:32;;;;;;;2.10;1.60;;;15.50;99.90;;;;;;5030961;28;20566;-86
2021/10/02 04:05:01;;;;;;;1.97;1.73;;;15.50;99.90;;;;;;5032366;28;20787;-86
2021/10/02 04:07:28;;;;;;;2.67;2.00;;;15.50;99.90;;;;;;5040591;28;20440;-90
2021/10/02 04:09:57;;;;;;;2.33;2.13;;;15.50;99.90;;;;;;5039729;28;20958;-85
2021/10/02 04:12:26;;;;;;;1.60;1.47;;;15.50;99.90;;;;;;5036223;28;20475;-88
2021/10/02 04:14:53;;;;;;;3.33;2.33;;;15.50;99.90;;;;;;5040210;28;20455;-87
2021/10/02 04:17:21;;;;;;;1.90;1.80;;;15.50;99.90;;;;;;5039755;28;20482;-85
2021/10/02 04:19:48;;;;;;;2.90;1.80;;;15.50;99.90;;;;;;5037589;28;20469;-85
2021/10/02 04:22:16;;;;;;;2.03;1.83;;;15.50;99.90;;;;;;5040396;28;20510;-90
2021/10/02 04:24:44;;;;;;;3.33;2.17;;;15.50;99.90;;;;;;5042734;28;20601;-86
2021/10/02 04:27:14;;;;;;;2.67;1.90;;;15.50;99.90;;;;;;5035934;28;20466;-85
2021/10/02 04:29:41;;;;;;;1.97;1.87;;;15.50;99.90;;;;;;5041008;28;20450;-85
2021/10/02 04:32:09;;;;;;;2.63;2.00;;;15.50;99.90;;;;;;5039480;28;20452;-86
2021/10/02 04:34:38;;;;;;;2.43;1.83;;;15.50;99.90;;;;;;5037527;28;20460;-86
2021/10/02 04:37:05;;;;;;;2.13;1.73;;;15.60;99.90;;;;;;5038223;28;20944;-85
2021/10/02 04:39:33;;;;;;;4.70;1.70;;;15.60;99.90;;;;;;5038407;28;20944;-87
2021/10/02 04:42:01;;;;;;;1.77;1.67;;;15.60;99.90;;;;;;5036076;28;20980;-86
2021/10/02 04:44:31;;;;;;;1.40;1.30;;;15.60;99.90;;;;;;5036326;28;20455;-86
2021/10/02 04:46:59;;;;;;;1.60;1.50;;;15.60;99.90;;;;;;5035567;28;20457;-86
2021/10/02 04:49:27;;;;;;;2.47;1.83;;;15.60;99.90;;;;;;5034800;28;20454;-87
2021/10/02 04:51:56;;;;;;;1.50;1.40;;;15.60;99.90;;;;;;5043391;28;20455;-88
2021/10/02 04:54:23;;;;;;;2.20;1.70;;;15.60;99.90;;;;;;5044134;28;20470;-86
2021/10/02 04:56:51;;;;;;;2.30;1.73;;;15.60;99.90;;;;;;5034646;28;20467;-90
2021/10/02 04:59:18;;;;;;;2.33;1.90;;;15.60;99.90;;;;;;5040206;28;20451;-87
2021/10/02 05:01:47;;;;;;;2.50;2.30;;;15.60;99.90;;;;;;5040707;28;20553;-86
2021/10/02 05:04:15;;;;;;;4.70;3.27;;;15.60;99.90;;;;;;5038898;28;20462;-85
2021/10/02 05:06:43;;;;;;;7.47;4.57;;;15.60;99.90;;;;;;5041383;28;20524;-86
2021/10/02 05:09:10;;;;;;;3.60;2.90;;;15.60;99.90;;;;;;5043072;28;20466;-86
2021/10/02 05:11:38;;;;;;;4.07;3.00;;;15.60;99.90;;;;;;5043745;28;20473;-85
2021/10/02 05:14:05;;;;;;;10.50;4.97;;;15.60;99.90;;;;;;5041183;28;20456;-87
2021/10/02 05:16:33;;;;;;;12.50;6.37;;;15.60;99.90;;;;;;5033391;28;20463;-86
2021/10/02 05:19:03;;;;;;;10.77;5.13;;;15.60;99.90;;;;;;5040488;28;20785;-86
2021/10/02 05:21:30;;;;;;;11.50;4.90;;;15.60;99.90;;;;;;5038145;28;20472;-86
2021/10/02 05:23:57;;;;;;;15.03;5.93;;;15.60;99.90;;;;;;5039744;28;20465;-89
2021/10/02 05:26:27;;;;;;;17.17;7.47;;;15.60;99.90;;;;;;5040983;28;20459;-86
2021/10/02 05:28:56;;;;;;;15.93;7.03;;;15.60;99.90;;;;;;5035112;28;20729;-85
2021/10/02 05:31:23;;;;;;;15.17;7.10;;;15.60;99.90;;;;;;5033785;28;20465;-88
2021/10/02 05:33:54;;;;;;;15.70;8.07;;;15.50;99.90;;;;;;5037114;28;20483;-86
2021/10/02 05:36:23;;;;;;;9.47;5.23;;;15.50;99.90;;;;;;5036762;28;20480;-85
2021/10/02 05:38:52;;;;;;;7.40;4.80;;;15.50;99.90;;;;;;5040947;28;20968;-86
2021/10/02 05:41:21;;;;;;;3.73;2.80;;;15.50;99.90;;;;;;5038486;28;20463;-86
2021/10/02 05:43:50;;;;;;;2.80;2.30;;;15.50;99.90;;;;;;5033248;28;20518;-86
2021/10/02 05:46:18;;;;;;;3.30;2.07;;;15.50;99.90;;;;;;5038063;28;20990;-85
2021/10/02 05:48:45;;;;;;;1.90;1.73;;;15.40;99.90;;;;;;5041005;28;20472;-86
2021/10/02 05:51:13;;;;;;;1.97;1.87;;;15.40;99.90;;;;;;5040332;28;21152;-88
2021/10/02 05:53:42;;;;;;;1.90;1.70;;;15.40;99.90;;;;;;5045517;28;20462;-88
2021/10/02 05:56:09;;;;;;;2.27;2.07;;;15.40;99.90;;;;;;5030607;28;20803;-86
2021/10/02 05:58:36;;;;;;;1.87;1.67;;;15.40;99.90;;;;;;5033481;28;20552;-85
2021/10/02 06:01:04;;;;;;;1.77;1.67;;;15.40;99.90;;;;;;5033657;28;20535;-86
2021/10/02 06:03:32;;;;;;;2.60;1.77;;;15.40;99.90;;;;;;5022279;28;20490;-85
2021/10/02 06:06:00;;;;;;;2.27;2.07;;;15.40;99.90;;;;;;5044440;28;20455;-87
2021/10/02 06:08:28;;;;;;;1.80;1.70;;;15.40;99.90;;;;;;5040985;28;20459;-86
2021/10/02 06:10:57;;;;;;;1.50;1.40;;;15.40;99.90;;;;;;5044821;28;20473;-86
2021/10/02 06:13:25;;;;;;;1.40;1.30;;;15.40;99.90;;;;;;5035658;28;20547;-86
2021/10/02 06:15:52;;;;;;;1.60;1.50;;;15.40;99.90;;;;;;5042580;28;20447;-86
2021/10/02 06:18:22;;;;;;;1.60;1.50;;;15.30;99.90;;;;;;5035067;28;20460;-86
2021/10/02 06:20:49;;;;;;;1.87;1.77;;;15.40;99.90;;;;;;5049848;28;20462;-85
2021/10/02 06:23:16;;;;;;;2.03;1.73;;;15.40;99.90;;;;;;5043513;28;20520;-86
2021/10/02 06:25:44;;;;;;;1.57;1.47;;;15.40;99.90;;;;;;5042820;28;20992;-88
2021/10/02 06:28:13;;;;;;;1.70;1.60;;;15.30;99.90;;;;;;5041911;28;20513;-86
2021/10/02 06:30:40;;;;;;;1.70;1.60;;;15.30;99.90;;;;;;5046123;28;20475;-86
2021/10/02 06:33:07;;;;;;;1.80;1.70;;;15.30;99.90;;;;;;5039904;28;20572;-86
2021/10/02 06:35:34;;;;;;;2.00;1.80;;;15.40;99.90;;;;;;5040633;28;20463;-84
2021/10/02 06:38:01;;;;;;;1.57;1.40;;;15.30;99.90;;;;;;5038896;28;20472;-85
2021/10/02 06:40:29;;;;;;;2.77;1.80;;;15.30;99.90;;;;;;5038866;28;20556;-86
2021/10/02 06:42:56;;;;;;;1.83;1.53;;;15.30;99.90;;;;;;5044598;28;20529;-88
2021/10/02 06:45:24;;;;;;;1.60;1.50;;;15.40;99.90;;;;;;5037401;28;20467;-89
2021/10/02 06:47:52;;;;;;;2.30;2.10;;;15.40;99.90;;;;;;5045440;28;20549;-86
2021/10/02 06:50:20;;;;;;;1.60;1.50;;;15.40;99.90;;;;;;5040438;28;20462;-89
2021/10/02 06:52:47;;;;;;;1.87;1.77;;;15.40;99.90;;;;;;5047512;28;20561;-90
2021/10/02 06:55:15;;;;;;;1.70;1.60;;;15.40;99.90;;;;;;5040886;28;20542;-86
2021/10/02 06:57:42;;;;;;;1.80;1.70;;;15.50;99.90;;;;;;5040903;28;20463;-88
2021/10/02 07:00:10;;;;;;;5.57;1.57;;;15.40;99.90;;;;;;5043452;28;20487;-87
2021/10/02 07:02:42;;;;;;;2.43;1.53;;;15.50;99.90;;;;;;5044738;28;20870;-86
2021/10/02 07:05:10;;;;;;;1.40;1.30;;;15.50;99.90;;;;;;5030936;28;20464;-86
2021/10/02 07:07:38;;;;;;;1.60;1.50;;;15.50;99.90;;;;;;5044501;28;20459;-86
2021/10/02 07:10:06;;;;;;;1.67;1.57;;;15.60;99.90;;;;;;5041473;28;20462;-86
2021/10/02 07:12:33;;;;;;;1.87;1.50;;;15.60;99.90;;;;;;5037897;28;20466;-88
2021/10/02 07:15:00;;;;;;;3.20;2.70;;;15.60;99.90;;;;;;5035037;28;20470;-87
2021/10/02 07:17:28;;;;;;;2.77;2.43;;;15.60;99.90;;;;;;5038444;28;20897;-88
2021/10/02 07:19:56;;;;;;;2.03;1.80;;;15.60;99.90;;;;;;5040980;28;20477;-86
2021/10/02 07:22:24;;;;;;;3.00;2.27;;;15.70;99.90;;;;;;5034737;28;20505;-85
2021/10/02 07:24:51;;;;;;;3.67;3.13;;;15.70;99.90;;;;;;5033902;28;21259;-86
2021/10/02 07:27:18;;;;;;;2.93;2.63;;;15.70;99.90;;;;;;5038535;28;20514;-85
2021/10/02 07:29:45;;;;;;;3.80;2.67;;;15.80;99.90;;;;;;5034787;28;20471;-85
2021/10/02 07:32:12;;;;;;;4.57;4.17;;;15.80;99.90;;;;;;5043913;28;20555;-87
2021/10/02 07:34:40;;;;;;;4.57;2.57;;;15.80;99.90;;;;;;5041516;28;20567;-85
2021/10/02 07:37:10;;;;;;;3.50;3.20;;;15.80;99.90;;;;;;5033165;28;20459;-87
2021/10/02 07:39:37;;;;;;;6.60;3.50;;;15.90;99.90;;;;;;5035965;28;20470;-88
2021/10/02 07:42:05;;;;;;;7.17;2.70;;;15.90;99.90;;;;;;5035924;28;20464;-86
2021/10/02 07:44:34;;;;;;;3.30;2.60;;;15.90;99.90;;;;;;5040838;28;20459;-85
2021/10/02 07:47:03;;;;;;;3.00;2.33;;;15.90;99.90;;;;;;5040629;28;20465;-86
2021/10/02 07:49:34;;;;;;;4.07;2.83;;;16.00;99.90;;;;;;5041086;28;20464;-86
2021/10/02 07:52:03;;;;;;;2.13;2.00;;;16.00;99.90;;;;;;5031709;28;20488;-87
2021/10/02 07:54:34;;;;;;;2.70;2.50;;;16.00;99.90;;;;;;5034165;28;20464;-88
2021/10/02 07:59:44;;;;;;;2.60;2.03;;;16.00;99.90;;;;;;5034099;28;20823;-85
2021/10/02 08:02:11;;;;;;;4.40;2.30;;;16.10;99.90;;;;;;5034171;28;20586;-86
2021/10/02 08:04:42;;;;;;;3.20;2.27;;;16.10;99.90;;;;;;5033355;28;20554;-85
2021/10/02 08:07:09;;;;;;;4.33;2.30;;;16.10;99.90;;;;;;5039078;28;20526;-86
2021/10/02 08:09:41;;;;;;;2.10;1.90;;;16.10;99.90;;;;;;5040462;28;20451;-85
2021/10/02 08:12:09;;;;;;;7.17;2.47;;;16.20;99.90;;;;;;5034682;28;20468;-85
2021/10/02 08:14:38;;;;;;;2.33;2.13;;;16.20;99.90;;;;;;5036202;28;20461;-83
2021/10/02 08:17:07;;;;;;;2.20;1.90;;;16.20;99.90;;;;;;5040241;28;20539;-86
2021/10/02 08:19:35;;;;;;;5.57;2.07;;;16.30;99.90;;;;;;5037023;28;20469;-86
2021/10/02 08:22:05;;;;;;;2.23;1.87;;;16.30;99.90;;;;;;5035596;28;20533;-87
2021/10/02 08:24:33;;;;;;;1.73;1.63;;;16.30;99.90;;;;;;5039695;28;20457;-86
2021/10/02 08:27:09;;;;;;;3.87;1.83;;;16.30;99.90;;;;;;5030891;28;20456;-87
2021/10/02 08:29:41;;;;;;;3.83;1.83;;;16.30;99.90;;;;;;5032281;28;20812;-85
2021/10/02 08:32:08;;;;;;;1.60;1.50;;;16.40;99.90;;;;;;5029946;28;20455;-86
2021/10/02 08:34:35;;;;;;;4.20;1.60;;;16.40;99.90;;;;;;5032174;28;20460;-86
2021/10/02 08:37:03;;;;;;;1.60;1.43;;;16.40;99.90;;;;;;5038448;28;20467;-86
2021/10/02 08:39:30;;;;;;;2.10;2.00;;;16.50;99.90;;;;;;5035229;28;20843;-86
2021/10/02 08:41:58;;;;;;;2.90;1.67;;;16.50;99.90;;;;;;5031603;28;20467;-85
2021/10/02 08:44:30;;;;;;;2.60;1.53;;;16.50;99.90;;;;;;5040282;28;20986;-86
2021/10/02 08:46:58;;;;;;;1.90;1.80;;;16.50;99.90;;;;;;5040619;28;20464;-85
2021/10/02 08:49:43;;;;;;;2.70;2.00;;;16.60;99.90;;;;;;5041546;28;20455;-85
2021/10/02 08:52:11;;;;;;;2.30;2.10;;;16.60;99.90;;;;;;5031992;28;20460;-86
2021/10/02 08:54:40;;;;;;;2.40;2.13;;;16.60;99.90;;;;;;5035092;28;20572;-86
2021/10/02 08:57:09;;;;;;;2.00;1.90;;;16.70;99.90;;;;;;5032441;28;20512;-85
2021/10/02 08:59:40;;;;;;;2.33;2.23;;;16.70;99.90;;;;;;5035040;28;20460;-85
2021/10/02 09:02:10;;;;;;;3.73;2.40;;;16.70;99.90;;;;;;5037338;28;21069;-86
2021/10/02 09:04:40;;;;;;;4.47;2.27;;;16.80;99.90;;;;;;5034764;28;21393;-85
2021/10/02 09:07:07;;;;;;;2.63;2.30;;;16.80;99.90;;;;;;5042491;28;20503;-85
2021/10/02 09:09:35;;;;;;;5.87;2.83;;;16.80;99.90;;;;;;5039804;28;20790;-85
2021/10/02 09:12:05;;;;;;;2.50;2.30;;;16.90;99.90;;;;;;5035688;28;20465;-84
2021/10/02 09:14:32;;;;;;;3.87;2.80;;;16.90;99.90;;;;;;5036765;28;20468;-83
2021/10/02 09:17:01;;;;;;;6.90;3.13;;;16.90;99.90;;;;;;5045214;28;20488;-85
2021/10/02 09:19:28;;;;;;;3.40;3.10;;;16.90;99.90;;;;;;5039281;28;20472;-85
2021/10/02 09:21:58;;;;;;;5.40;3.30;;;16.90;99.90;;;;;;5033177;28;20822;-86
2021/10/02 09:24:26;;;;;;;2.50;2.30;;;17.00;99.90;;;;;;5035180;28;20489;-85
2021/10/02 09:26:54;;;;;;;2.93;2.60;;;17.00;99.90;;;;;;5031215;28;20534;-85
2021/10/02 09:29:37;;;;;;;2.87;2.50;;;16.90;99.90;;;;;;5035484;28;20517;-84
2021/10/02 09:32:09;;;;;;;3.03;2.30;;;17.00;99.90;;;;;;5034163;28;20475;-85
2021/10/02 09:34:44;;;;;;;3.30;2.10;;;17.00;99.90;;;;;;5034926;28;20489;-87
2021/10/02 09:37:23;;;;;;;1.77;1.67;;;17.00;99.90;;;;;;5026569;28;20957;-85
2021/10/02 09:39:53;;;;;;;5.27;2.10;;;17.00;99.90;;;;;;5029356;28;20471;-86
2021/10/02 09:42:30;;;;;;;5.77;1.73;;;17.10;99.90;;;;;;5033791;28;20480;-84
2021/10/02 09:45:00;;;;;;;3.57;1.70;;;17.10;99.90;;;;;;5037905;28;20971;-84
2021/10/02 09:47:29;;;;;;;2.70;2.00;;;17.10;99.90;;;;;;5036127;28;20871;-85
2021/10/02 09:49:56;;;;;;;4.67;1.70;;;17.20;99.90;;;;;;5036390;28;20470;-85
2021/10/02 09:52:35;;;;;;;3.67;1.83;;;17.20;99.90;;;;;;5033175;28;21108;-85
2021/10/02 09:55:15;;;;;;;12.40;2.43;;;17.30;99.90;;;;;;5031258;28;20467;-86
2021/10/02 09:57:44;;;;;;;4.03;1.70;;;17.30;99.90;;;;;;5037787;28;20456;-86
2021/10/02 10:00:13;;;;;;;6.40;3.70;;;17.30;99.90;;;;;;5032761;28;20998;-86
2021/10/02 10:02:43;;;;;;;2.60;1.67;;;17.40;99.90;;;;;;5028504;28;20498;-85
2021/10/02 10:05:12;;;;;;;2.37;1.60;;;17.40;99.90;;;;;;5037930;28;20460;-86
2021/10/02 10:07:40;;;;;;;4.13;1.90;;;17.50;99.90;;;;;;5033758;28;20482;-87
2021/10/02 10:10:12;;;;;;;1.93;1.63;;;17.50;99.90;;;;;;5035193;28;20457;-85
2021/10/02 10:12:41;;;;;;;2.90;1.67;;;17.50;99.90;;;;;;5037909;28;20458;-84
2021/10/02 10:15:26;;;;;;;2.10;1.87;;;17.50;99.90;;;;;;5030799;28;20479;-86
2021/10/02 10:17:55;;;;;;;1.90;1.80;;;17.50;99.90;;;;;;5033138;28;20470;-86
2021/10/02 10:20:44;;;;;;;3.93;1.77;;;17.50;99.90;;;;;;5031096;28;20879;-91
2021/10/02 10:23:13;;;;;;;2.10;1.60;;;17.60;99.90;;;;;;5026832;28;20473;-85
2021/10/02 10:25:52;;;;;;;1.80;1.57;;;17.60;99.90;;;;;;5037285;28;20462;-86
2021/10/02 10:28:24;;;;;;;3.47;1.50;;;17.60;99.90;;;;;;5038853;28;20471;-84
2021/10/02 10:30:52;;;;;;;1.93;1.40;;;17.60;99.90;;;;;;5035753;28;20466;-86
2021/10/02 10:33:22;;;;;;;2.13;1.90;;;17.60;99.90;;;;;;5029732;28;21136;-85
2021/10/02 10:35:51;;;;;;;2.67;1.80;;;17.60;99.90;;;;;;5038371;28;20814;-85
2021/10/02 10:38:20;;;;;;;4.13;2.00;;;17.60;99.90;;;;;;5028428;28;20582;-85
2021/10/02 10:40:49;;;;;;;2.73;1.70;;;17.60;99.90;;;;;;5035637;28;20555;-85
2021/10/02 10:43:18;;;;;;;1.60;1.50;;;17.60;99.90;;;;;;5037442;28;20463;-86
2021/10/02 10:45:46;;;;;;;4.40;1.70;;;17.60;99.90;;;;;;5044019;28;20470;-85
2021/10/02 10:48:14;;;;;;;2.97;1.93;;;17.70;99.90;;;;;;5036142;28;20466;-89
2021/10/02 10:50:50;;;;;;;2.00;1.47;;;17.70;99.90;;;;;;5032238;28;20524;-85
2021/10/02 10:53:18;;;;;;;7.03;3.00;;;17.80;99.90;;;;;;5032484;28;20522;-85
2021/10/02 10:55:52;;;;;;;5.57;2.53;;;17.90;99.90;;;;;;5032682;28;21209;-86
2021/10/02 10:58:24;;;;;;;9.97;5.67;;;17.90;99.90;;;;;;5031230;28;20466;-86
2021/10/02 11:00:52;;;;;;;7.60;4.77;;;18.00;99.90;;;;;;5029835;28;20496;-86
2021/10/02 11:03:36;;;;;;;3.13;2.83;;;18.00;99.90;;;;;;5033018;28;20466;-85
2021/10/02 11:06:06;;;;;;;2.33;1.77;;;18.10;99.90;;;;;;5031127;28;20458;-86
2021/10/02 11:09:02;;;;;;;1.93;1.80;;;18.10;99.90;;;;;;5036600;28;20467;-86
2021/10/02 11:11:56;;;;;;;1.80;1.70;;;18.20;99.90;;;;;;5029385;28;20486;-86
2021/10/02 11:14:26;;;;;;;1.60;1.50;;;18.20;99.90;;;;;;5031127;28;20864;-86
2021/10/02 11:17:04;;;;;;;2.20;1.80;;;18.20;99.90;;;;;;5046485;28;20476;-85
2021/10/02 11:19:38;;;;;;;1.70;1.50;;;18.20;99.90;;;;;;5033745;28;20853;-87
2021/10/02 11:22:45;;;;;;;1.60;1.50;;;18.30;99.90;;;;;;5033858;28;20518;-85
2021/10/02 11:25:19;;;;;;;10.07;1.73;;;18.30;99.90;;;;;;5029508;28;20557;-86
2021/10/02 11:31:13;;;;;;;1.90;1.50;;;18.40;99.90;;;;;;5033800;28;20539;-86
2021/10/02 11:33:45;;;;;;;2.00;1.80;;;18.50;99.90;;;;;;5035050;28;20492;-86
2021/10/02 11:36:45;;;;;;;1.40;1.30;;;18.40;99.90;;;;;;5031123;28;20463;-85
2021/10/02 11:39:21;;;;;;;2.03;1.43;;;18.40;99.90;;;;;;5029533;28;20467;-86
2021/10/02 11:41:52;;;;;;;1.40;1.30;;;18.40;99.90;;;;;;5032199;28;20821;-86
2021/10/02 11:44:38;;;;;;;1.67;1.40;;;18.40;99.90;;;;;;5047080;28;20466;-84
2021/10/02 11:47:32;;;;;;;2.70;1.80;;;18.40;99.90;;;;;;5035499;28;20978;-85
2021/10/02 11:50:28;;;;;;;1.53;1.43;;;18.40;99.90;;;;;;5032363;28;20461;-85
2021/10/02 11:53:22;;;;;;;1.60;1.50;;;18.50;99.90;;;;;;5035710;28;20810;-85
2021/10/02 11:55:51;;;;;;;1.53;1.40;;;18.50;99.90;;;;;;5034761;28;20489;-85
2021/10/02 11:58:21;;;;;;;1.93;1.70;;;18.50;99.90;;;;;;5035573;28;20524;-85
2021/10/02 12:00:55;;;;;;;2.20;1.60;;;18.50;99.90;;;;;;5033913;28;20999;-88
2021/10/02 12:03:25;;;;;;;2.27;1.30;;;18.60;99.90;;;;;;5032051;28;20471;-84
2021/10/02 12:05:54;;;;;;;2.57;1.80;;;18.60;99.90;;;;;;5026044;28;20460;-86
2021/10/02 12:08:22;;;;;;;1.50;1.40;;;18.60;99.90;;;;;;5036711;28;20879;-83
2021/10/02 12:10:57;;;;;;;1.63;1.53;;;18.60;99.90;;;;;;5035264;28;20491;-86
2021/10/02 12:13:28;;;;;;;1.57;1.47;;;18.60;99.90;;;;;;5037194;28;20473;-85
2021/10/02 12:16:04;;;;;;;1.67;1.57;;;18.60;99.90;;;;;;5037939;28;20489;-85
2021/10/02 12:18:49;;;;;;;1.50;1.40;;;18.60;99.90;;;;;;5033796;28;20562;-85
2021/10/02 12:21:26;;;;;;;1.50;1.30;;;18.60;99.90;;;;;;5031088;28;20850;-87
2021/10/02 12:23:56;;;;;;;1.50;1.40;;;18.60;99.90;;;;;;5032777;28;20887;-85
2021/10/02 12:26:24;;;;;;;2.43;1.20;;;18.60;99.90;;;;;;5032224;28;20882;-84
2021/10/02 12:29:02;;;;;;;1.40;1.30;;;18.70;99.90;;;;;;5039263;28;20466;-87
2021/10/02 12:31:52;;;;;;;1.80;1.70;;;18.70;99.90;;;;;;5029768;28;20492;-84
2021/10/02 12:34:24;;;;;;;1.93;1.50;;;18.70;99.90;;;;;;5031020;28;20509;-86
2021/10/02 12:36:56;;;;;;;2.63;1.50;;;18.70;99.90;;;;;;5036839;28;20838;-84
2021/10/02 12:39:29;;;;;;;2.03;1.33;;;18.70;99.90;;;;;;5037762;28;20578;-85
2021/10/02 12:41:56;;;;;;;1.33;1.23;;;18.80;99.90;;;;;;5036359;28;20461;-84
2021/10/02 12:44:28;;;;;;;1.50;1.33;;;18.80;99.90;;;;;;5033706;28;20486;-85
2021/10/02 12:46:57;;;;;;;1.60;1.47;;;18.80;99.90;;;;;;5047259;28;20499;-86
2021/10/02 12:49:27;;;;;;;7.60;2.23;;;18.80;99.90;;;;;;5031635;28;20960;-84
2021/10/02 12:51:55;;;;;;;8.03;2.00;;;18.90;99.90;;;;;;5032988;28;20472;-85
2021/10/02 12:54:26;;;;;;;2.60;1.60;;;18.90;99.90;;;;;;5031313;28;20493;-86
2021/10/02 12:57:07;;;;;;;1.60;1.50;;;19.00;99.90;;;;;;5031799;28;20468;-86
2021/10/02 12:59:58;;;;;;;1.50;1.40;;;19.00;99.90;;;;;;5030267;28;20472;-83
2021/10/02 13:02:27;;;;;;;4.90;2.07;;;19.00;99.90;;;;;;5033966;28;20916;-86
2021/10/02 13:04:55;;;;;;;2.10;1.90;;;18.90;99.90;;;;;;5029284;28;20471;-86
2021/10/02 13:07:27;;;;;;;3.43;1.80;;;19.00;99.90;;;;;;5039982;28;20451;-85
2021/10/02 13:10:00;;;;;;;3.20;1.53;;;19.00;99.90;;;;;;5034632;28;20464;-84
2021/10/02 13:12:30;;;;;;;4.00;1.70;;;19.00;99.90;;;;;;5032440;28;20514;-83
2021/10/02 13:14:59;;;;;;;2.93;1.70;;;19.00;99.90;;;;;;5035808;28;20582;-86
2021/10/02 13:17:27;;;;;;;1.83;1.40;;;19.00;99.90;;;;;;5038616;28;20491;-87
2021/10/02 13:20:17;;;;;;;3.70;1.97;;;19.00;99.90;;;;;;5038687;28;20489;-86
2021/10/02 13:22:47;;;;;;;3.60;1.40;;;19.00;99.90;;;;;;5036866;28;20470;-84
2021/10/02 13:25:20;;;;;;;2.70;1.50;;;19.00;99.90;;;;;;5032202;28;20471;-84
2021/10/02 13:27:49;;;;;;;1.87;1.70;;;19.00;99.90;;;;;;5035095;28;20477;-85
2021/10/02 13:30:19;;;;;;;6.23;2.10;;;19.10;99.90;;;;;;5032909;28;20464;-86
2021/10/02 13:33:01;;;;;;;2.30;1.93;;;19.10;99.90;;;;;;5037278;28;20866;-86
2021/10/02 13:35:30;;;;;;;1.70;1.60;;;19.10;99.90;;;;;;5033815;28;20513;-84
2021/10/02 13:37:58;;;;;;;3.63;1.73;;;19.10;99.90;;;;;;5031171;28;20470;-85
2021/10/02 13:40:27;;;;;;;2.43;2.23;;;19.10;99.90;;;;;;5034896;28;20817;-86
2021/10/02 13:42:56;;;;;;;1.83;1.60;;;19.10;99.90;;;;;;5032802;28;21002;-85
2021/10/02 13:45:35;;;;;;;1.80;1.70;;;19.20;99.90;;;;;;5039099;28;20469;-84
2021/10/02 13:48:06;;;;;;;2.13;1.93;;;19.20;99.90;;;;;;5028815;28;20459;-85
2021/10/02 13:50:35;;;;;;;2.90;1.70;;;19.20;99.90;;;;;;5029298;28;20462;-84
2021/10/02 13:53:03;;;;;;;1.80;1.70;;;19.20;99.90;;;;;;5038678;28;21215;-85
2021/10/02 13:55:31;;;;;;;4.37;1.60;;;19.30;99.90;;;;;;5031978;28;20499;-84
2021/10/02 13:57:59;;;;;;;2.53;1.77;;;19.30;99.90;;;;;;5034301;28;20570;-85
2021/10/02 14:00:28;;;;;;;1.70;1.60;;;19.30;99.90;;;;;;5036223;28;20519;-85